Time;durP1;ratioP1;P1;durP2;ratioP2;P2;SDS_P1;SDS_P2;PMS_P1;PMS_P2;Temp;Humidity;BMP_temperature;BMP_pressure;BME280_temperature;BME280_humidity;BME280_pressure;Samples;Min_cycle;Max_cycle;Signal;HPM_P1;HPM_P2
2023/05/06 00:00:30;;;;;;;17.07;8.03;;;;;;;-145.69;100.00;52383.00;5092360;28;20245;-78
2023/05/06 00:02:58;;;;;;;21.83;9.73;;;;;;;-145.69;100.00;52410.72;5093199;28;20209;-78
2023/05/06 00:05:25;;;;;;;16.90;8.97;;;;;;;-145.69;100.00;52357.25;5092606;28;20234;-78
2023/05/06 00:07:53;;;;;;;13.80;7.63;;;;;;;-145.69;100.00;52353.28;5092391;28;20201;-77
2023/05/06 00:10:20;;;;;;;20.00;9.53;;;;;;;-145.69;100.00;52369.13;5092583;28;20209;-78
2023/05/06 00:12:46;;;;;;;15.03;8.23;;;;;;;-145.69;100.00;52373.09;5092577;28;20204;-78
2023/05/06 00:15:13;;;;;;;17.83;9.27;;;;;;;-145.69;100.00;52361.22;5093530;28;20205;-78
2023/05/06 00:17:39;;;;;;;14.38;7.72;;;;;;;-145.69;100.00;52377.06;5096633;28;20209;-78
2023/05/06 00:20:08;;;;;;;15.10;7.75;;;;;;;-145.69;100.00;52341.41;5096570;28;20201;-78
2023/05/06 00:22:34;;;;;;;12.60;7.07;;;;;;;-145.69;100.00;52345.38;5095774;28;20198;-78
2023/05/06 00:25:02;;;;;;;12.47;7.20;;;;;;;-145.69;100.00;52353.28;5096041;28;20293;-78
2023/05/06 00:27:29;;;;;;;11.38;6.43;;;;;;;-145.69;100.00;52357.25;5096412;28;20202;-78
2023/05/06 00:29:57;;;;;;;15.70;8.27;;;;;;;-145.69;100.00;52390.91;5096752;28;20201;-78
2023/05/06 00:32:24;;;;;;;17.33;8.60;;;;;;;-145.69;100.00;52381.00;5095995;28;20202;-78
2023/05/06 00:34:50;;;;;;;16.45;8.30;;;;;;;-145.69;100.00;52377.06;5096345;28;20197;-79
2023/05/06 00:37:17;;;;;;;17.93;8.50;;;;;;;-145.69;100.00;52345.38;5096644;28;20209;-79
2023/05/06 00:39:43;;;;;;;17.57;8.47;;;;;;;-145.69;100.00;52367.16;5096566;28;20202;-79
2023/05/06 00:42:11;;;;;;;17.30;8.53;;;;;;;-145.69;100.00;52377.06;5095767;28;20237;-78
2023/05/06 00:44:37;;;;;;;16.57;8.97;;;;;;;-145.69;100.00;52365.16;5096186;28;20195;-78
2023/05/06 00:47:04;;;;;;;14.57;8.20;;;;;;;-145.69;100.00;52327.53;5096454;28;20201;-78
2023/05/06 00:49:31;;;;;;;16.67;10.10;;;;;;;-145.69;100.00;52369.13;5094780;28;20937;-78
2023/05/06 00:51:58;;;;;;;12.37;7.00;;;;;;;-145.69;100.00;52371.13;5096021;28;20703;-78
2023/05/06 00:54:26;;;;;;;15.87;8.33;;;;;;;-145.69;100.00;52369.13;5095869;28;20202;-78
2023/05/06 00:56:52;;;;;;;13.93;7.90;;;;;;;-145.69;100.00;52388.94;5095756;28;20224;-78
2023/05/06 00:59:21;;;;;;;14.47;7.23;;;;;;;-145.69;100.00;52381.00;5095778;28;20198;-78
2023/05/06 01:01:47;;;;;;;18.93;8.83;;;;;;;-145.69;100.00;52353.28;5095850;28;20226;-78
2023/05/06 01:04:15;;;;;;;16.90;9.37;;;;;;;-145.69;100.00;52381.00;5095983;28;20233;-78
2023/05/06 01:06:49;;;;;;;14.20;8.50;;;;;;;-145.69;100.00;52384.97;5095863;28;20675;-78
2023/05/06 01:09:20;;;;;;;12.33;7.20;;;;;;;-145.69;100.00;52359.22;5095418;28;20199;-78
2023/05/06 01:11:50;;;;;;;16.37;8.33;;;;;;;-145.69;100.00;52383.00;5095970;28;20292;-78
2023/05/06 01:14:26;;;;;;;14.90;8.10;;;;;;;-145.69;100.00;52379.03;5095536;28;20687;-78
2023/05/06 01:16:55;;;;;;;12.40;7.47;;;;;;;-145.69;100.00;52357.25;5082592;28;20251;-77
2023/05/06 01:19:36;;;;;;;13.03;6.70;;;;;;;-145.69;100.00;52349.31;5092740;28;20194;-78
2023/05/06 01:22:05;;;;;;;22.90;12.65;;;;;;;-145.69;100.00;52406.75;5094441;28;20857;-78
2023/05/06 01:24:37;;;;;;;19.47;9.90;;;;;;;-145.69;100.00;52384.97;5080352;28;20211;-78
2023/05/06 01:27:04;;;;;;;15.87;7.83;;;;;;;-145.69;100.00;52367.16;5074949;28;20662;-79
2023/05/06 01:29:31;;;;;;;16.10;8.35;;;;;;;-145.69;100.00;52383.00;5094652;28;20194;-78
2023/05/06 01:32:07;;;;;;;13.50;7.97;;;;;;;-145.69;100.00;52367.16;5095395;28;20206;-78
2023/05/06 01:34:41;;;;;;;19.13;8.57;;;;;;;-145.69;100.00;52369.13;5095159;28;20201;-79
2023/05/06 01:37:14;;;;;;;13.97;7.50;;;;;;;-145.69;100.00;52381.00;5095182;28;20205;-79
2023/05/06 01:39:45;;;;;;;13.90;7.47;;;;;;;-145.69;100.00;52345.38;5075010;28;20210;-78
2023/05/06 01:42:14;;;;;;;10.50;6.57;;;;;;;-145.69;100.00;52365.16;5075068;28;20237;-78
2023/05/06 01:44:43;;;;;;;10.47;7.07;;;;;;;-145.69;100.00;52375.06;5075017;28;20218;-79
2023/05/06 01:47:11;;;;;;;15.57;7.47;;;;;;;-145.69;100.00;52379.03;5087773;28;20194;-78
2023/05/06 01:49:38;;;;;;;14.63;7.93;;;;;;;-145.69;100.00;52386.97;5094748;28;20202;-78
2023/05/06 01:52:04;;;;;;;13.87;7.50;;;;;;;-145.69;100.00;52375.06;5094841;28;20202;-78
2023/05/06 01:54:31;;;;;;;17.27;9.07;;;;;;;-145.69;100.00;52367.16;5095175;28;20198;-79
2023/05/06 01:56:59;;;;;;;23.97;9.67;;;;;;;-145.69;100.00;52349.31;5094747;28;20684;-78
2023/05/06 01:59:25;;;;;;;21.57;10.27;;;;;;;-145.69;100.00;52381.00;5094197;28;20190;-78
2023/05/06 02:01:52;;;;;;;23.30;10.87;;;;;;;-145.69;100.00;52384.97;5094810;28;20571;-79
2023/05/06 02:04:18;;;;;;;21.07;10.30;;;;;;;-145.69;100.00;52396.84;5094369;28;20236;-79
2023/05/06 02:06:44;;;;;;;22.93;11.77;;;;;;;-145.69;100.00;52381.00;5094523;28;20649;-79
2023/05/06 02:09:11;;;;;;;30.97;12.77;;;;;;;-145.69;100.00;52369.13;5094179;28;20216;-79
2023/05/06 02:11:37;;;;;;;26.53;12.27;;;;;;;-145.69;100.00;52412.69;5094554;28;20198;-79
2023/05/06 02:14:05;;;;;;;22.57;11.67;;;;;;;-145.69;100.00;52369.13;5094182;28;20561;-79
2023/05/06 02:16:31;;;;;;;19.27;10.27;;;;;;;-145.69;100.00;52438.44;5094536;28;20201;-79
2023/05/06 02:18:58;;;;;;;25.80;11.73;;;;;;;-145.69;100.00;52416.66;5094272;28;20213;-79
2023/05/06 02:21:25;;;;;;;27.43;11.43;;;;;;;-145.69;100.00;52396.84;5094240;28;20221;-79
2023/05/06 02:23:51;;;;;;;22.70;11.43;;;;;;;-145.69;100.00;52424.59;5094123;28;20243;-79
2023/05/06 02:26:18;;;;;;;24.20;10.57;;;;;;;-145.69;100.00;52400.81;5094260;28;20557;-79
2023/05/06 02:28:44;;;;;;;20.53;10.47;;;;;;;-145.69;100.00;52384.97;5094523;28;20224;-78
2023/05/06 02:31:14;;;;;;;26.13;10.57;;;;;;;-145.69;100.00;52381.00;5093621;28;20687;-79
2023/05/06 02:33:41;;;;;;;21.27;11.10;;;;;;;-145.69;100.00;52383.00;5093861;28;20205;-79
2023/05/06 02:36:07;;;;;;;20.33;10.80;;;;;;;-145.69;100.00;52381.00;5094349;28;20205;-79
2023/05/06 02:38:34;;;;;;;27.17;12.87;;;;;;;-145.69;100.00;52396.84;5093044;28;20580;-79
2023/05/06 02:41:00;;;;;;;30.50;12.93;;;;;;;-145.69;100.00;52388.94;5093832;28;20555;-79
2023/05/06 02:43:27;;;;;;;24.20;10.93;;;;;;;-145.69;100.00;52381.00;5093893;28;20209;-79
2023/05/06 02:45:53;;;;;;;21.73;10.33;;;;;;;-145.69;100.00;52331.50;5093445;28;20560;-79
2023/05/06 02:48:21;;;;;;;28.10;12.13;;;;;;;-145.69;100.00;52396.84;5093112;28;20703;-79
2023/05/06 02:50:47;;;;;;;22.13;11.37;;;;;;;-145.69;100.00;52347.34;5094199;28;20198;-79
2023/05/06 02:53:14;;;;;;;23.67;10.47;;;;;;;-145.69;100.00;52384.97;5093874;28;20209;-79
2023/05/06 02:55:40;;;;;;;20.63;9.70;;;;;;;-145.69;100.00;52396.84;5093565;28;20202;-79
2023/05/06 02:58:06;;;;;;;20.73;11.23;;;;;;;-145.69;100.00;52412.69;5093389;28;20221;-79
2023/05/06 03:00:33;;;;;;;25.08;12.63;;;;;;;-145.69;100.00;52388.94;5093442;28;20437;-78
2023/05/06 03:03:00;;;;;;;27.47;11.93;;;;;;;-145.69;100.00;52400.81;5093043;28;20257;-79
2023/05/06 03:05:27;;;;;;;24.90;11.30;;;;;;;-145.69;100.00;52438.44;5093077;28;20232;-79
2023/05/06 03:07:54;;;;;;;26.40;14.37;;;;;;;-145.69;100.00;52388.94;5093213;28;20191;-80
2023/05/06 03:10:20;;;;;;;26.00;12.10;;;;;;;-145.69;100.00;52396.84;5093449;28;20197;-79
2023/05/06 03:12:47;;;;;;;21.23;11.00;;;;;;;-145.69;100.00;52388.94;5093454;28;20206;-79
2023/05/06 03:15:13;;;;;;;22.23;10.73;;;;;;;-145.69;100.00;52392.91;5093295;28;20197;-79
2023/05/06 03:17:40;;;;;;;21.93;10.43;;;;;;;-145.69;100.00;52386.97;5093201;28;20213;-79
2023/05/06 03:20:08;;;;;;;19.87;9.57;;;;;;;-145.69;100.00;52388.94;5093421;28;20198;-79
2023/05/06 03:22:36;;;;;;;22.30;10.53;;;;;;;-145.69;100.00;52390.91;5093501;28;20230;-79
2023/05/06 03:25:02;;;;;;;19.30;10.20;;;;;;;-145.69;100.00;52345.38;5093442;28;20198;-79
2023/05/06 03:27:29;;;;;;;23.93;10.77;;;;;;;-145.69;100.00;52412.69;5092874;28;20198;-79
2023/05/06 03:29:55;;;;;;;26.10;11.63;;;;;;;-145.69;100.00;52369.13;5081189;28;20198;-79
2023/05/06 03:32:22;;;;;;;23.67;10.90;;;;;;;-145.69;100.00;52408.75;5073054;28;20234;-79
2023/05/06 03:34:48;;;;;;;18.40;10.07;;;;;;;-145.69;100.00;52404.78;5073041;28;20202;-79
2023/05/06 03:37:15;;;;;;;22.23;11.60;;;;;;;-145.69;100.00;52424.59;5072652;28;20201;-79
2023/05/06 03:39:42;;;;;;;19.33;9.97;;;;;;;-145.69;100.00;52400.81;5091590;28;20202;-79
2023/05/06 03:42:09;;;;;;;20.40;9.77;;;;;;;-145.69;100.00;52392.91;5092868;28;20222;-79
2023/05/06 03:44:35;;;;;;;17.23;9.40;;;;;;;-145.69;100.00;52384.97;5092736;28;20201;-79
2023/05/06 03:47:02;;;;;;;17.90;9.70;;;;;;;-145.69;100.00;52365.16;5092929;28;20243;-79
2023/05/06 03:49:28;;;;;;;18.63;9.80;;;;;;;-145.69;100.00;52361.22;5091357;28;20197;-78
2023/05/06 03:51:55;;;;;;;15.87;9.20;;;;;;;-145.69;100.00;52386.97;5091341;28;20194;-79
2023/05/06 03:54:22;;;;;;;16.63;9.10;;;;;;;-145.69;100.00;52408.75;5092614;28;20281;-79
2023/05/06 03:56:50;;;;;;;17.83;9.77;;;;;;;-145.69;100.00;52381.00;5092426;28;20197;-78
2023/05/06 03:59:16;;;;;;;24.93;9.87;;;;;;;-145.69;100.00;52416.66;5092907;28;20202;-78
2023/05/06 04:01:43;;;;;;;16.90;7.97;;;;;;;-145.69;100.00;52400.81;5092666;28;20226;-79
2023/05/06 04:04:09;;;;;;;17.00;8.40;;;;;;;-145.69;100.00;52369.13;5092088;28;20719;-79
2023/05/06 04:06:36;;;;;;;18.00;9.47;;;;;;;-145.69;100.00;52373.09;5092786;28;20202;-79
2023/05/06 04:09:05;;;;;;;19.27;9.30;;;;;;;-145.69;100.00;52408.75;5092572;28;20649;-78
2023/05/06 04:11:31;;;;;;;19.20;9.70;;;;;;;-145.69;100.00;52396.84;5092791;28;20198;-79
2023/05/06 04:13:59;;;;;;;16.13;9.20;;;;;;;-145.69;100.00;52384.97;5092710;28;20649;-79
2023/05/06 04:16:26;;;;;;;22.53;8.53;;;;;;;-145.69;100.00;52392.91;5092508;28;20210;-79
2023/05/06 04:18:53;;;;;;;13.17;7.63;;;;;;;-145.69;100.00;52400.81;5092037;28;20190;-78
2023/05/06 04:21:20;;;;;;;13.00;7.73;;;;;;;-145.69;100.00;52381.00;5092338;28;20672;-78
2023/05/06 04:23:46;;;;;;;18.00;9.73;;;;;;;-145.69;100.00;52388.94;5092150;28;20228;-79
2023/05/06 04:26:13;;;;;;;25.33;11.73;;;;;;;-145.69;100.00;52392.91;5091991;28;20198;-79
2023/05/06 04:28:39;;;;;;;29.77;12.40;;;;;;;-145.69;100.00;52377.06;5091715;28;20202;-79
2023/05/06 04:31:07;;;;;;;24.73;12.23;;;;;;;-145.69;100.00;52390.91;5092830;28;20199;-78
2023/05/06 04:33:34;;;;;;;24.83;11.77;;;;;;;-145.69;100.00;52396.84;5092309;28;20230;-79
2023/05/06 04:36:01;;;;;;;35.23;14.37;;;;;;;-145.69;100.00;52381.00;5092310;28;20648;-79
2023/05/06 04:38:30;;;;;;;25.50;12.20;;;;;;;-145.69;100.00;52398.84;5092204;28;20202;-79
2023/05/06 04:40:57;;;;;;;35.33;11.10;;;;;;;-145.69;100.00;52420.63;5092207;28;20663;-79
2023/05/06 04:43:23;;;;;;;56.30;12.60;;;;;;;-145.69;100.00;52408.75;5092305;28;20727;-79
2023/05/06 04:45:50;;;;;;;37.20;12.17;;;;;;;-145.69;100.00;52377.06;5092134;28;20199;-80
2023/05/06 04:48:20;;;;;;;27.93;11.90;;;;;;;-145.69;100.00;52408.75;5091791;28;20205;-79
2023/05/06 04:50:47;;;;;;;29.57;12.10;;;;;;;-145.69;100.00;52400.81;5092222;28;20347;-79
2023/05/06 04:53:14;;;;;;;27.15;12.48;;;;;;;-145.69;100.00;52406.75;5092235;28;20209;-79
2023/05/06 04:55:40;;;;;;;25.17;10.77;;;;;;;-145.69;100.00;52373.09;5092319;28;20212;-79
2023/05/06 04:58:07;;;;;;;32.93;14.40;;;;;;;-145.69;100.00;52408.75;5091843;28;20202;-79
2023/05/06 05:00:33;;;;;;;27.77;12.80;;;;;;;-145.69;100.00;52377.06;5092367;28;20271;-79
2023/05/06 05:03:00;;;;;;;25.97;12.67;;;;;;;-145.69;100.00;52361.22;5095766;28;20239;-79
2023/05/06 05:05:29;;;;;;;25.50;12.23;;;;;;;-145.69;100.00;52418.63;5096108;28;20588;-79
2023/05/06 05:07:55;;;;;;;22.67;11.63;;;;;;;-145.69;100.00;52400.81;5095626;28;20271;-79
2023/05/06 05:10:22;;;;;;;16.63;9.37;;;;;;;-145.69;100.00;52384.97;5095536;28;20195;-79
2023/05/06 05:12:48;;;;;;;25.07;9.97;;;;;;;-145.69;100.00;52400.81;5095891;28;20194;-78
2023/05/06 05:15:15;;;;;;;21.48;12.02;;;;;;;-145.69;100.00;52392.91;5095610;28;20204;-79
2023/05/06 05:17:41;;;;;;;58.90;14.50;;;;;;;-145.69;100.00;52392.91;5095333;28;20202;-79
2023/05/06 05:20:09;;;;;;;20.20;11.10;;;;;;;-145.69;100.00;52379.03;5094597;28;20197;-78
2023/05/06 05:22:36;;;;;;;19.05;10.57;;;;;;;-145.69;100.00;52396.84;5095524;28;20229;-79
2023/05/06 05:25:03;;;;;;;19.60;10.15;;;;;;;-145.69;100.00;52384.97;5095186;28;20747;-78
2023/05/06 05:27:30;;;;;;;22.40;11.35;;;;;;;-145.69;100.00;52361.22;5094896;28;20649;-78
2023/05/06 05:29:57;;;;;;;19.45;10.95;;;;;;;-145.69;100.00;52402.78;5086597;28;20649;-78
2023/05/06 05:32:23;;;;;;;17.70;8.90;;;;;;;-145.69;100.00;52367.16;5075204;28;20209;-78
2023/05/06 05:34:50;;;;;;;16.60;9.57;;;;;;;-145.69;100.00;52384.97;5075031;28;20602;-78
2023/05/06 05:37:16;;;;;;;15.82;9.30;;;;;;;-145.69;100.00;52369.13;5093259;28;20206;-78
2023/05/06 05:39:44;;;;;;;14.68;8.95;;;;;;;-145.69;100.00;52377.06;5095362;28;20202;-78
2023/05/06 05:42:10;;;;;;;18.13;10.43;;;;;;;-145.69;100.00;52365.16;5094922;28;20323;-78
2023/05/06 05:44:37;;;;;;;15.02;9.52;;;;;;;-145.69;100.00;52383.00;5094946;28;20220;-78
2023/05/06 05:47:04;;;;;;;12.27;8.45;;;;;;;-145.69;100.00;52408.75;5094723;28;20198;-78
2023/05/06 05:49:30;;;;;;;13.80;8.32;;;;;;;-145.69;100.00;52373.09;5094339;28;20641;-78
2023/05/06 05:51:57;;;;;;;18.60;8.30;;;;;;;-145.69;100.00;52388.94;5095258;28;20198;-78
2023/05/06 05:54:23;;;;;;;13.13;7.43;;;;;;;-145.69;100.00;52341.41;5094441;28;20233;-78
2023/05/06 05:56:53;;;;;;;11.02;7.25;;;;;;;-145.69;100.00;52365.16;5095002;28;20205;-78
2023/05/06 05:59:19;;;;;;;10.00;5.85;;;;;;;-145.69;100.00;52381.00;5094704;28;20195;-78
2023/05/06 06:01:51;;;;;;;8.20;5.88;;;;;;;-145.69;100.00;52349.31;5094501;28;20251;-80
2023/05/06 06:04:21;;;;;;;8.68;5.72;;;;;;;-145.69;100.00;52341.41;5094550;28;20260;-79
2023/05/06 06:06:53;;;;;;;7.80;5.20;;;;;;;-145.69;100.00;52375.06;5094145;28;20240;-78
2023/05/06 06:09:19;;;;;;;8.32;5.40;;;;;;;-145.69;100.00;52371.13;5094432;28;20201;-79
2023/05/06 06:11:49;;;;;;;9.05;5.20;;;;;;;-145.69;100.00;52351.31;5094790;28;20248;-79
2023/05/06 06:17:01;;;;;;;15.05;4.97;;;;;;;-145.69;100.00;52363.19;5092021;28;20289;-79
2023/05/06 06:19:28;;;;;;;6.78;4.18;;;;;;;-145.69;100.00;52365.16;5094285;28;20277;-79
2023/05/06 06:22:00;;;;;;;6.35;3.90;;;;;;;-145.69;100.00;52383.00;5093836;28;20198;-79
2023/05/06 06:24:27;;;;;;;6.72;4.30;;;;;;;-145.69;100.00;52388.94;5094311;28;20665;-79
2023/05/06 06:26:56;;;;;;;7.43;3.53;;;;;;;-145.69;100.00;52349.31;5093119;28;20235;-78
2023/05/06 06:29:24;;;;;;;4.88;3.20;;;;;;;-145.69;100.00;52371.13;5093382;28;20202;-78
2023/05/06 06:31:54;;;;;;;5.07;2.88;;;;;;;-145.69;100.00;52365.16;5093792;28;20217;-78
2023/05/06 06:34:21;;;;;;;3.85;2.78;;;;;;;-145.69;100.00;52377.06;5092884;28;20193;-79
2023/05/06 06:36:49;;;;;;;3.92;2.35;;;;;;;-145.69;100.00;52365.16;5093404;28;20250;-79
2023/05/06 06:39:15;;;;;;;4.10;2.45;;;;;;;-145.69;100.00;52369.13;5091880;28;20445;-78
2023/05/06 06:41:49;;;;;;;3.47;1.92;;;;;;;-145.69;100.00;52349.31;5093665;28;20297;-79
2023/05/06 06:44:15;;;;;;;2.05;1.73;;;;;;;-145.69;100.00;52361.22;5093847;28;20233;-77
2023/05/06 06:46:43;;;;;;;3.08;1.80;;;;;;;-145.69;100.00;52361.22;5094115;28;20202;-77
2023/05/06 06:49:15;;;;;;;1.75;1.58;;;;;;;-145.69;100.00;52325.56;5093368;28;20229;-78
2023/05/06 06:51:42;;;;;;;2.55;1.60;;;;;;;-145.69;100.00;52329.53;5094000;28;20229;-79
2023/05/06 06:54:11;;;;;;;2.78;1.65;;;;;;;-145.69;100.00;52363.19;5093476;28;20596;-79
2023/05/06 06:56:40;;;;;;;3.78;1.75;;;;;;;-145.69;100.00;52337.44;5093737;28;20194;-79
2023/05/06 06:59:08;;;;;;;4.50;1.95;;;;;;;-145.69;100.00;52325.56;5093596;28;20198;-79
2023/05/06 07:01:37;;;;;;;4.88;1.50;;;;;;;-145.69;100.00;52339.44;5093769;28;20206;-79
2023/05/06 07:04:07;;;;;;;2.83;1.40;;;;;;;-145.69;100.00;52349.31;5093521;28;20710;-79
2023/05/06 07:06:39;;;;;;;2.42;1.20;;;;;;;-145.69;100.00;52367.16;5093463;28;20194;-79
2023/05/06 07:09:09;;;;;;;1.55;1.00;;;;;;;-145.69;100.00;52333.47;5093411;28;20209;-76
2023/05/06 07:11:36;;;;;;;4.70;1.35;;;;;;;-145.69;100.00;52305.75;5093604;28;20198;-79
2023/05/06 07:14:05;;;;;;;2.35;1.10;;;;;;;-145.69;100.00;52345.38;5093623;28;20714;-79
2023/05/06 07:16:32;;;;;;;1.30;1.20;;;;;;;-145.69;100.00;52327.53;5093261;28;20198;-79
2023/05/06 07:19:02;;;;;;;5.10;1.27;;;;;;;-145.69;100.00;52325.56;5093044;28;20657;-79
2023/05/06 07:21:32;;;;;;;2.95;1.40;;;;;;;-145.69;100.00;52313.69;5093657;28;20263;-79
2023/05/06 07:23:58;;;;;;;2.95;1.20;;;;;;;-145.69;100.00;52327.53;5093110;28;20229;-79
2023/05/06 07:26:27;;;;;;;3.83;1.13;;;;;;;-145.69;100.00;52283.97;5093068;28;20209;-79
2023/05/06 07:28:54;;;;;;;1.30;1.20;;;;;;;-145.69;100.00;52325.56;5093089;28;20252;-80
2023/05/06 07:31:26;;;;;;;3.55;1.10;;;;;;;-145.69;100.00;52325.56;5078457;28;20676;-80
2023/05/06 07:33:52;;;;;;;2.30;1.13;;;;;;;-145.69;100.00;52301.81;5073091;28;20282;-80
2023/05/06 07:36:21;;;;;;;1.98;1.20;;;;;;;-145.69;100.00;52254.28;5073112;28;20210;-80
2023/05/06 07:38:48;;;;;;;2.55;1.10;;;;;;;-145.69;100.00;52305.75;5073080;28;20199;-80
2023/05/06 07:41:15;;;;;;;2.97;1.10;;;;;;;-145.69;100.00;52289.91;5090958;28;20549;-80
2023/05/06 07:43:43;;;;;;;1.90;0.95;;;;;;;-145.69;100.00;52258.22;5092982;28;20226;-80
2023/05/06 07:46:11;;;;;;;3.10;1.15;;;;;;;-145.69;100.00;52291.91;5092938;28;20579;-81
2023/05/06 07:48:38;;;;;;;1.35;1.00;;;;;;;-145.69;100.00;52264.16;5092902;28;20190;-81
2023/05/06 07:51:05;;;;;;;1.00;0.95;;;;;;;-145.69;100.00;52283.97;5092822;28;20233;-79
2023/05/06 07:53:38;;;;;;;4.03;1.10;;;;;;;-145.69;100.00;52325.56;5092849;28;20201;-81
2023/05/06 07:56:08;;;;;;;2.40;0.93;;;;;;;-145.69;100.00;52276.06;5092677;28;20201;-80
2023/05/06 07:58:37;;;;;;;1.88;0.90;;;;;;;-145.69;100.00;52289.91;5092631;28;20194;-79
2023/05/06 08:01:07;;;;;;;1.40;0.90;;;;;;;-145.69;100.00;52270.13;5092949;28;20198;-81
2023/05/06 08:03:34;;;;;;;2.97;0.90;;;;;;;-145.69;100.00;52297.84;5091799;28;20699;-79
2023/05/06 08:06:01;;;;;;;4.03;1.05;;;;;;;-145.69;100.00;52331.50;5092871;28;20226;-81
2023/05/06 08:08:28;;;;;;;4.00;1.13;;;;;;;-145.69;100.00;52317.66;5091691;28;20645;-81
2023/05/06 08:11:01;;;;;;;2.47;1.17;;;;;;;-145.69;100.00;52345.38;5092822;28;20285;-78
2023/05/06 08:13:34;;;;;;;2.88;1.10;;;;;;;-145.69;100.00;52301.81;5092900;28;20602;-80
2023/05/06 08:16:05;;;;;;;1.75;1.23;;;;;;;-145.69;100.00;52333.47;5093213;28;20210;-81
2023/05/06 08:18:33;;;;;;;3.13;0.98;;;;;;;-145.69;100.00;52303.78;5092640;28;20595;-81
2023/05/06 08:21:00;;;;;;;2.03;1.17;;;;;;;-145.69;100.00;52282.00;5093040;28;20202;-81
2023/05/06 08:23:28;;;;;;;1.10;0.85;;;;;;;-145.69;100.00;52258.22;5092692;28;20324;-80
2023/05/06 08:26:05;;;;;;;1.50;0.80;;;;;;;-145.69;100.00;52268.13;5091449;28;20194;-80
2023/05/06 08:28:33;;;;;;;3.15;0.98;;;;;;;-145.69;90.13;52282.00;5092621;28;20202;-81
2023/05/06 08:31:00;;;;;;;1.25;0.90;;;;;;;-145.69;89.99;52254.28;5092654;28;20288;-79
2023/05/06 08:33:32;;;;;;;2.38;0.90;;;;;;;-145.69;84.70;52246.34;5092445;28;20202;-79
2023/05/06 08:36:01;;;;;;;1.20;0.80;;;;;;;-145.69;77.37;52274.06;5092939;28;20248;-80
2023/05/06 08:38:29;;;;;;;1.38;0.95;;;;;;;-145.69;80.20;52270.13;5096677;28;20225;-81
2023/05/06 08:41:02;;;;;;;4.57;1.00;;;;;;;-145.69;89.44;52258.22;5096689;28;20198;-79
2023/05/06 08:43:35;;;;;;;2.40;0.85;;;;;;;-145.69;88.82;52274.06;5096470;28;20226;-77
2023/05/06 08:46:03;;;;;;;5.07;1.40;;;;;;;-145.69;87.03;52262.19;5096338;28;20209;-79
2023/05/06 08:48:32;;;;;;;3.00;2.15;;;;;;;-145.69;84.85;52268.13;5095268;28;20206;-79
2023/05/06 08:51:03;;;;;;;4.32;1.55;;;;;;;-145.69;91.61;52293.88;5096096;28;20672;-79
2023/05/06 08:53:31;;;;;;;4.55;1.42;;;;;;;-145.69;91.28;52268.13;5095577;28;20212;-81
2023/05/06 08:56:05;;;;;;;1.98;0.98;;;;;;;-145.69;80.06;52230.50;5095111;28;20634;-83
2023/05/06 08:58:36;;;;;;;3.15;1.10;;;;;;;-145.69;85.18;52264.16;5095529;28;20194;-83
2023/05/06 09:01:03;;;;;;;1.70;1.10;;;;;;;-145.69;89.14;52250.31;5095840;28;20206;-85
2023/05/06 09:03:37;;;;;;;6.07;1.23;;;;;;;-145.69;87.97;52252.28;5076739;28;20689;-80
2023/05/06 09:06:06;;;;;;;3.78;1.35;;;;;;;-145.69;84.41;52264.16;5074079;28;20226;-81
2023/05/06 09:08:33;;;;;;;2.42;1.30;;;;;;;-145.69;98.91;52270.13;5084526;28;20232;-82
2023/05/06 09:10:59;;;;;;;6.20;1.20;;;;;;;-145.69;97.95;52291.91;5096407;28;20656;-83
2023/05/06 09:13:26;;;;;;;2.22;1.10;;;;;;;-145.69;92.22;52278.03;5097166;28;20206;-82
2023/05/06 09:15:54;;;;;;;1.30;1.10;;;;;;;-145.69;93.75;52274.06;5095704;28;20198;-83
2023/05/06 09:18:24;;;;;;;3.55;1.25;;;;;;;-145.69;98.12;52240.41;5095920;28;20190;-83
2023/05/06 09:20:54;;;;;;;2.50;1.10;;;;;;;-145.69;82.09;52246.34;5095943;28;20604;-85
2023/05/06 09:23:22;;;;;;;4.00;1.13;;;;;;;-145.69;83.00;52218.63;5094070;28;20221;-85
2023/05/06 09:25:50;;;;;;;3.63;1.15;;;;;;;-145.69;83.97;52274.06;5077158;28;20712;-83
2023/05/06 09:28:16;;;;;;;1.77;1.00;;;;;;;-145.69;90.42;52232.50;5075942;28;20198;-85
2023/05/06 09:30:46;;;;;;;3.53;1.20;;;;;;;-145.69;75.92;52224.56;5075248;28;20206;-85
2023/05/06 09:33:15;;;;;;;4.25;1.48;;;;;;;-145.69;84.55;52228.53;5076175;28;20610;-85
2023/05/06 09:35:44;;;;;;;3.10;0.80;;;;;;;-145.69;84.57;52244.38;5094325;28;20557;-81
2023/05/06 09:38:15;;;;;;;4.88;1.13;;;;;;;-145.69;86.05;52270.13;5095246;28;20202;-79
2023/05/06 09:40:42;;;;;;;4.20;1.20;;;;;;;-145.69;91.18;52280.00;5094897;28;20249;-80
2023/05/06 09:43:14;;;;;;;8.88;1.35;;;;;;;-145.69;88.47;52234.47;5095363;28;20213;-82
2023/05/06 09:45:43;;;;;;;3.40;1.05;;;;;;;-145.69;84.80;52295.84;5095149;28;20198;-82
2023/05/06 09:48:12;;;;;;;1.92;0.90;;;;;;;-145.69;83.89;52264.16;5094877;28;20206;-83
2023/05/06 09:50:40;;;;;;;2.28;1.23;;;;;;;-145.69;73.40;52256.25;5094851;28;20712;-83
2023/05/06 09:53:08;;;;;;;2.15;1.33;;;;;;;-145.69;73.49;52266.16;5095669;28;20212;-84
2023/05/06 09:55:36;;;;;;;2.72;1.20;;;;;;;-145.69;73.01;52208.72;5095396;28;20530;-83
2023/05/06 09:58:05;;;;;;;2.35;1.20;;;;;;;-145.69;87.52;52254.28;5094836;28;20706;-82
2023/05/06 10:00:31;;;;;;;2.42;1.23;;;;;;;-145.69;91.81;52246.34;5094245;28;20222;-80
2023/05/06 10:03:01;;;;;;;2.92;1.20;;;;;;;-145.69;91.43;52242.38;5095441;28;20197;-80
2023/05/06 10:05:32;;;;;;;2.90;1.25;;;;;;;-145.69;82.79;52250.31;5094677;28;20234;-81
2023/05/06 10:08:05;;;;;;;2.83;1.30;;;;;;;-145.69;82.68;52252.28;5092936;28;20202;-78
2023/05/06 10:10:34;;;;;;;2.70;1.10;;;;;;;-145.69;81.99;52242.38;5094368;28;20248;-78
2023/05/06 10:13:03;;;;;;;6.78;1.10;;;;;;;-145.69;83.31;52266.16;5094397;28;20198;-79
2023/05/06 10:15:36;;;;;;;4.18;1.20;;;;;;;-145.69;83.80;52244.38;5094613;28;20292;-78
2023/05/06 10:18:06;;;;;;;2.03;0.90;;;;;;;-145.69;80.39;52250.31;5094537;28;20235;-78
2023/05/06 10:20:34;;;;;;;2.80;1.55;;;;;;;-145.69;86.17;52266.16;5094747;28;20202;-79
2023/05/06 10:23:19;;;;;;;3.03;1.08;;;;;;;-145.69;85.29;52250.31;5094345;28;20198;-79
2023/05/06 10:25:54;;;;;;;1.33;1.20;;;;;;;-145.69;81.96;52238.44;5094167;28;20210;-79
2023/05/06 10:28:23;;;;;;;1.23;1.00;;;;;;;-145.69;78.88;52246.34;5093451;28;20194;-79
2023/05/06 10:30:54;;;;;;;2.65;1.30;;;;;;;-145.69;80.52;52240.41;5090416;28;20201;-79
2023/05/06 10:33:23;;;;;;;1.83;1.00;;;;;;;-145.69;76.42;52246.34;5092983;28;20208;-79
2023/05/06 10:35:56;;;;;;;2.22;0.95;;;;;;;-145.69;76.95;52250.31;5093874;28;20281;-79
2023/05/06 10:38:28;;;;;;;2.50;1.30;;;;;;;-145.69;78.20;52254.28;5094081;28;20198;-79
2023/05/06 10:40:58;;;;;;;2.35;1.10;;;;;;;-145.69;77.74;52238.44;5093474;28;20208;-78
2023/05/06 10:43:29;;;;;;;1.55;1.10;;;;;;;-145.69;70.97;52238.44;5093546;28;20705;-79
2023/05/06 10:46:03;;;;;;;7.90;1.20;;;;;;;-145.69;73.10;52226.53;5093883;28;20204;-79
2023/05/06 10:48:30;;;;;;;2.08;1.08;;;;;;;-145.69;80.31;52248.34;5093492;28;20235;-78
2023/05/06 10:51:21;;;;;;;4.15;1.10;;;;;;;-145.69;74.25;52226.53;5093873;28;20209;-78
2023/05/06 10:54:05;;;;;;;3.47;1.20;;;;;;;-145.69;75.38;52210.72;5090129;28;20292;-80
2023/05/06 10:56:34;;;;;;;4.65;1.10;;;;;;;-145.69;74.37;52260.22;5093188;28;20259;-80
2023/05/06 10:59:07;;;;;;;1.83;1.15;;;;;;;-145.69;81.93;52244.38;5092693;28;20243;-79
2023/05/06 11:01:38;;;;;;;1.90;1.02;;;;;;;-145.69;76.49;52216.66;5093717;28;20206;-77
2023/05/06 11:04:09;;;;;;;2.42;0.90;;;;;;;-145.69;69.59;52222.59;5092987;28;20225;-78
2023/05/06 11:06:39;;;;;;;7.13;1.10;;;;;;;-145.69;66.79;52202.78;5091539;28;20296;-79
2023/05/06 11:09:15;;;;;;;1.60;0.90;;;;;;;-145.69;70.08;52234.47;5093350;28;20218;-78
2023/05/06 11:11:51;;;;;;;2.78;1.10;;;;;;;-145.69;69.29;52208.72;5093542;28;20229;-77